Time;durP1;ratioP1;P1;durP2;ratioP2;P2;SDS_P1;SDS_P2;PMS_P1;PMS_P2;Temp;Humidity;BMP_temperature;BMP_pressure;BME280_temperature;BME280_humidity;BME280_pressure;Samples;Min_cycle;Max_cycle;Signal;HPM_P1;HPM_P2
2021/07/13 00:00:54;;;;;;;11.00;5.43;;;18.90;99.90;;;;;;6686910;88;20715;-78
2021/07/13 00:10:55;;;;;;;8.07;6.20;;;18.90;99.90;;;;;;6689714;88;20213;-79
2021/07/13 00:20:55;;;;;;;7.95;6.30;;;18.80;99.90;;;;;;6695605;88;20497;-79
2021/07/13 00:30:56;;;;;;;8.93;6.00;;;18.90;99.90;;;;;;6695911;88;20222;-78
2021/07/13 00:40:57;;;;;;;7.82;5.45;;;18.90;99.90;;;;;;6688261;88;20349;-78
2021/07/13 00:50:59;;;;;;;8.30;6.07;;;18.90;99.90;;;;;;6679202;88;20672;-78
2021/07/13 01:01:00;;;;;;;8.50;6.10;;;18.80;99.90;;;;;;6679211;89;20238;-78
2021/07/13 01:11:37;;;;;;;8.40;5.78;;;18.50;99.90;;;;;;6673935;88;20234;-78
2021/07/13 01:21:55;;;;;;;7.18;5.57;;;18.30;99.90;;;;;;6677031;88;20632;-78
2021/07/13 01:31:57;;;;;;;7.15;4.82;;;18.20;99.90;;;;;;6678708;88;20215;-77
2021/07/13 01:42:03;;;;;;;6.37;4.68;;;18.10;99.90;;;;;;6687023;88;20195;-77
2021/07/13 01:52:04;;;;;;;7.97;4.60;;;18.00;99.90;;;;;;6690502;88;20183;-78
2021/07/13 02:02:08;;;;;;;6.78;5.20;;;18.00;99.90;;;;;;6697274;88;20194;-78
2021/07/13 02:12:08;;;;;;;10.63;7.00;;;17.90;99.90;;;;;;6694114;88;20221;-76
2021/07/13 02:22:09;;;;;;;13.15;8.30;;;17.60;99.90;;;;;;6693811;88;20772;-77
2021/07/13 02:32:16;;;;;;;11.93;7.23;;;17.60;99.90;;;;;;6690746;88;20286;-76
2021/07/13 02:42:17;;;;;;;13.13;8.02;;;17.70;99.90;;;;;;6690328;88;20590;-77
2021/07/13 02:52:22;;;;;;;13.05;8.70;;;17.70;99.90;;;;;;6688968;88;20244;-77
2021/07/13 03:02:24;;;;;;;16.48;10.68;;;17.60;99.90;;;;;;6691292;88;20223;-77
2021/07/13 03:12:26;;;;;;;20.83;12.68;;;17.60;99.90;;;;;;6689540;88;20186;-77
2021/07/13 03:22:39;;;;;;;24.80;13.98;;;17.50;99.90;;;;;;6694700;88;20194;-77
2021/07/13 03:32:41;;;;;;;39.50;16.27;;;17.50;99.90;;;;;;6691300;88;20298;-78
2021/07/13 03:42:43;;;;;;;33.50;17.98;;;17.50;99.90;;;;;;6691453;88;20227;-77
2021/07/13 03:52:44;;;;;;;36.10;19.10;;;17.40;99.90;;;;;;6686217;88;20178;-77
2021/07/13 04:02:44;;;;;;;37.38;18.50;;;17.40;99.90;;;;;;6686561;88;20202;-76
2021/07/13 04:12:45;;;;;;;34.00;19.05;;;17.40;99.90;;;;;;6682332;88;20679;-77
2021/07/13 04:22:45;;;;;;;36.47;20.73;;;17.40;99.90;;;;;;6687595;88;20364;-77
2021/07/13 04:32:46;;;;;;;36.42;18.45;;;17.40;99.90;;;;;;6688392;88;20514;-75
2021/07/13 04:42:46;;;;;;;45.25;21.33;;;17.40;99.90;;;;;;6683657;88;20714;-77
2021/07/13 04:52:47;;;;;;;46.63;22.30;;;17.30;99.90;;;;;;6689111;88;20205;-76
2021/07/13 05:02:47;;;;;;;43.20;23.38;;;17.30;99.90;;;;;;6687123;88;20565;-76
2021/07/13 05:12:48;;;;;;;40.60;22.62;;;17.40;99.90;;;;;;6687199;88;20706;-76
2021/07/13 05:22:49;;;;;;;43.47;23.73;;;17.40;99.90;;;;;;6689071;88;20590;-76
2021/07/13 05:32:51;;;;;;;40.45;21.67;;;17.40;99.90;;;;;;6684633;88;20200;-74
2021/07/13 05:42:53;;;;;;;35.70;20.98;;;17.40;99.90;;;;;;6695270;88;20202;-75
2021/07/13 05:52:56;;;;;;;30.75;18.30;;;17.40;99.90;;;;;;6693736;88;20625;-74
2021/07/13 06:02:57;;;;;;;27.40;16.85;;;17.40;99.90;;;;;;6695945;88;20217;-74
2021/07/13 06:12:57;;;;;;;26.02;16.23;;;17.40;99.90;;;;;;6681601;88;20226;-75
2021/07/13 06:22:58;;;;;;;29.87;18.25;;;17.40;99.90;;;;;;6694389;88;20261;-75
2021/07/13 06:32:58;;;;;;;37.58;20.95;;;17.40;99.90;;;;;;6693238;88;20190;-75
2021/07/13 06:43:02;;;;;;;30.42;18.35;;;17.50;99.90;;;;;;6693773;88;20219;-75
2021/07/13 06:53:04;;;;;;;31.62;18.40;;;17.50;99.90;;;;;;6689087;88;20208;-75
2021/07/13 07:03:05;;;;;;;31.55;18.90;;;17.50;99.90;;;;;;6690806;88;20194;-75
2021/07/13 07:13:05;;;;;;;35.42;19.20;;;17.40;99.90;;;;;;6690212;88;20188;-76
2021/07/13 07:23:06;;;;;;;29.58;17.85;;;17.40;99.90;;;;;;6685891;88;20194;-75
2021/07/13 07:33:07;;;;;;;28.33;18.17;;;17.40;99.90;;;;;;6693740;88;20179;-76
2021/07/13 07:43:07;;;;;;;27.40;16.70;;;17.40;99.90;;;;;;6694539;88;20185;-76
2021/07/13 07:53:08;;;;;;;22.00;13.70;;;17.50;99.90;;;;;;6693788;88;20227;-78
2021/07/13 08:03:10;;;;;;;20.52;12.95;;;17.50;99.90;;;;;;6692923;88;20194;-76
2021/07/13 08:13:10;;;;;;;21.98;13.98;;;17.50;99.90;;;;;;6694697;88;20240;-77
2021/07/13 08:23:11;;;;;;;24.08;14.60;;;17.60;99.90;;;;;;6695274;88;20187;-77
2021/07/13 08:33:12;;;;;;;31.77;16.92;;;17.60;99.90;;;;;;6694868;88;20573;-78
2021/07/13 08:43:13;;;;;;;30.80;18.33;;;17.50;99.90;;;;;;6695436;88;20190;-77
2021/07/13 08:53:14;;;;;;;29.52;18.50;;;17.60;99.90;;;;;;6685392;88;20584;-77
2021/07/13 09:03:19;;;;;;;32.95;19.02;;;17.90;99.90;;;;;;6690181;88;20249;-75
2021/07/13 09:13:24;;;;;;;34.42;20.85;;;18.10;99.90;;;;;;6697293;88;20211;-76
2021/07/13 09:23:25;;;;;;;37.72;22.15;;;18.30;99.90;;;;;;6697659;88;20198;-76
2021/07/13 09:33:32;;;;;;;31.85;20.55;;;18.50;99.90;;;;;;6695507;88;20186;-75
2021/07/13 09:43:49;;;;;;;27.55;18.95;;;19.10;99.90;;;;;;6687959;88;20194;-75
2021/07/13 09:53:50;;;;;;;22.58;16.58;;;20.10;99.90;;;;;;6696438;88;20216;-75
2021/07/13 10:03:50;;;;;;;26.27;16.80;;;20.40;99.90;;;;;;6694757;88;20573;-77
2021/07/13 10:13:52;;;;;;;24.10;16.43;;;20.60;99.90;;;;;;6706927;77;20288;-76
2021/07/13 10:23:53;;;;;;;27.02;17.05;;;20.50;99.90;;;;;;6719903;88;20209;-77
2021/07/13 10:33:56;;;;;;;22.55;16.77;;;20.50;99.90;;;;;;6703116;88;20176;-77
2021/07/13 10:43:57;;;;;;;23.40;15.83;;;20.70;99.90;;;;;;6734010;88;20875;-78
2021/07/13 10:54:06;;;;;;;20.17;13.85;;;21.00;99.90;;;;;;6718511;88;20277;-77
2021/07/13 11:04:09;;;;;;;17.55;12.43;;;21.20;99.90;;;;;;6718637;88;20700;-78
2021/07/13 11:14:11;;;;;;;18.35;13.55;;;21.20;99.90;;;;;;6714647;88;20291;-78
2021/07/13 11:24:14;;;;;;;18.87;13.48;;;21.40;99.90;;;;;;6695990;88;20632;-76
2021/07/13 11:34:18;;;;;;;18.10;13.30;;;21.30;99.90;;;;;;6703033;88;20244;-77
2021/07/13 11:44:19;;;;;;;20.37;13.87;;;21.20;99.90;;;;;;6685278;88;20204;-77
2021/07/13 11:54:25;;;;;;;24.45;15.57;;;21.00;99.90;;;;;;6722608;88;20189;-78
2021/07/13 12:04:28;;;;;;;17.85;12.90;;;21.40;99.90;;;;;;6694053;88;20176;-77
2021/07/13 12:14:28;;;;;;;19.00;12.90;;;22.30;99.90;;;;;;6720768;88;20310;-78
2021/07/13 12:24:48;;;;;;;16.35;11.30;;;22.60;99.90;;;;;;6706650;88;20237;-77
2021/07/13 12:34:51;;;;;;;15.07;10.20;;;23.10;99.90;;;;;;6690625;88;20239;-78
2021/07/13 12:44:53;;;;;;;;;;;22.90;99.90;;;;;;6695145;88;20170;-78
2021/07/13 12:54:58;;;;;;;14.75;11.07;;;22.50;99.90;;;;;;6710191;88;20097;-77
2021/07/13 13:04:58;;;;;;;14.20;10.50;;;22.80;99.90;;;;;;6713928;88;20279;-78
2021/07/13 13:14:59;;;;;;;15.37;10.60;;;22.60;99.90;;;;;;6717248;88;20217;-78
2021/07/13 13:24:59;;;;;;;13.70;10.20;;;22.50;99.90;;;;;;6744352;88;20533;-78
2021/07/13 13:35:00;;;;;;;13.90;10.18;;;22.20;99.90;;;;;;6720461;88;20256;-79
2021/07/13 13:45:01;;;;;;;15.95;10.32;;;22.10;99.90;;;;;;6699202;88;20185;-78
2021/07/13 13:55:06;;;;;;;14.63;9.02;;;22.20;99.90;;;;;;6691051;88;20543;-78
2021/07/13 14:05:07;;;;;;;11.95;9.00;;;22.10;99.90;;;;;;6666173;88;20228;-78
2021/07/13 14:15:11;;;;;;;13.00;8.68;;;22.40;99.90;;;;;;6694691;88;20622;-79
2021/07/13 14:25:12;;;;;;;;;;;23.00;99.90;;;;;;6722831;88;20210;-79
2021/07/13 14:35:13;;;;;;;11.88;9.18;;;23.40;99.90;;;;;;6713103;88;20079;-77
2021/07/13 14:45:15;;;;;;;12.55;8.45;;;23.30;99.90;;;;;;6690906;88;20315;-80
2021/07/13 14:55:15;;;;;;;11.73;8.45;;;23.70;99.90;;;;;;6742202;88;20241;-79
2021/07/13 15:05:16;;;;;;;14.35;9.63;;;23.60;99.90;;;;;;6715306;88;20341;-79
2021/07/13 15:15:17;;;;;;;8.52;6.93;;;23.60;99.90;;;;;;6652957;89;20202;-79
2021/07/13 15:25:18;;;;;;;7.00;5.80;;;23.50;99.90;;;;;;6651716;89;20198;-78
2021/07/13 15:35:19;;;;;;;7.90;4.75;;;23.50;99.90;;;;;;6657390;89;20246;-78
2021/07/13 15:45:19;;;;;;;7.37;5.75;;;23.40;99.90;;;;;;6651207;89;20199;-78
2021/07/13 15:55:20;;;;;;;8.60;6.10;;;23.30;99.90;;;;;;6653987;89;20219;-78
2021/07/13 16:05:21;;;;;;;9.70;6.43;;;23.00;99.90;;;;;;6648516;89;20191;-77
2021/07/13 16:15:21;;;;;;;10.05;6.87;;;23.00;99.90;;;;;;6649067;89;20527;-78
2021/07/13 16:25:22;;;;;;;8.88;7.35;;;22.70;99.90;;;;;;6709024;88;20239;-78
2021/07/13 16:35:23;;;;;;;9.05;7.25;;;22.80;99.90;;;;;;6723538;88;20252;-80
2021/07/13 16:45:23;;;;;;;10.10;7.15;;;22.80;99.90;;;;;;6709033;88;20257;-78
2021/07/13 16:55:27;;;;;;;12.98;7.93;;;23.00;99.90;;;;;;6725281;88;20222;-80
2021/07/13 17:05:27;;;;;;;;;;;23.30;99.90;;;;;;6706112;88;20206;-80
2021/07/13 17:15:30;;;;;;;7.90;6.43;;;23.10;99.90;;;;;;6700665;88;20081;-78
2021/07/13 17:25:33;;;;;;;7.70;5.50;;;23.20;99.90;;;;;;6707922;88;20164;-78
2021/07/13 17:35:34;;;;;;;8.67;4.10;;;23.30;99.90;;;;;;6705702;88;20206;-77
2021/07/13 17:45:35;;;;;;;4.85;3.28;;;23.20;99.90;;;;;;6704938;88;20733;-76
2021/07/13 17:55:35;;;;;;;5.35;3.75;;;22.90;99.90;;;;;;6650990;88;20237;-76
2021/07/13 18:05:36;;;;;;;4.60;3.80;;;22.80;99.90;;;;;;6651031;88;20654;-76
2021/07/13 18:15:37;;;;;;;6.12;4.20;;;22.60;99.90;;;;;;6651884;89;20347;-76
2021/07/13 18:25:38;;;;;;;6.78;4.72;;;22.40;99.90;;;;;;6733183;88;20266;-76
2021/07/13 18:35:39;;;;;;;6.22;5.10;;;22.10;99.90;;;;;;6714895;88;20216;-77
2021/07/13 18:45:42;;;;;;;12.63;6.53;;;21.70;99.90;;;;;;6663112;88;20188;-78
2021/07/13 18:55:43;;;;;;;15.83;8.60;;;21.20;99.90;;;;;;6679386;88;21182;-77
2021/07/13 19:05:45;;;;;;;12.27;9.20;;;20.40;99.90;;;;;;6701866;88;20211;-77
2021/07/13 19:15:46;;;;;;;14.18;9.70;;;20.10;99.90;;;;;;6696985;88;20671;-76
2021/07/13 19:25:47;;;;;;;14.00;10.07;;;20.00;99.90;;;;;;6704805;88;20255;-77
2021/07/13 19:45:50;;;;;;;11.50;9.15;;;19.90;99.90;;;;;;6702677;88;20204;-76
2021/07/13 19:55:50;;;;;;;13.45;9.50;;;19.70;99.90;;;;;;6695681;88;20696;-76
2021/07/13 20:05:51;;;;;;;8.88;6.85;;;19.70;99.90;;;;;;6668057;88;20185;-77
2021/07/13 20:15:51;;;;;;;9.68;7.37;;;19.70;99.90;;;;;;6694399;88;20703;-77
2021/07/13 20:25:52;;;;;;;8.02;4.65;;;19.70;99.90;;;;;;6703900;77;20353;-76
2021/07/13 20:35:53;;;;;;;7.12;4.30;;;19.40;99.90;;;;;;6682101;88;20184;-77
2021/07/13 20:45:53;;;;;;;5.07;3.58;;;19.20;99.90;;;;;;6685537;89;20214;-77
2021/07/13 20:55:58;;;;;;;5.43;3.25;;;18.90;99.90;;;;;;6688421;88;20195;-75
2021/07/13 21:05:58;;;;;;;;;;;18.80;99.90;;;;;;6657108;88;20275;-76
2021/07/13 21:15:59;;;;;;;4.75;3.15;;;18.60;99.90;;;;;;6688850;88;20047;-76
2021/07/13 21:26:00;;;;;;;5.40;3.05;;;18.40;99.90;;;;;;6681136;88;20340;-75
2021/07/13 21:36:00;;;;;;;5.75;2.58;;;18.40;99.90;;;;;;6682267;88;20244;-74
2021/07/13 21:46:01;;;;;;;5.00;2.17;;;18.20;99.90;;;;;;6680813;88;20196;-75
2021/07/13 21:56:01;;;;;;;6.28;1.40;;;18.10;99.90;;;;;;6679200;88;20752;-76
2021/07/13 22:06:03;;;;;;;3.72;1.42;;;18.10;99.90;;;;;;6679968;88;20242;-75
2021/07/13 22:16:04;;;;;;;3.83;0.93;;;18.10;99.90;;;;;;6673138;88;20203;-75
2021/07/13 22:26:05;;;;;;;2.30;1.20;;;18.00;99.90;;;;;;6680734;88;20281;-75
2021/07/13 22:36:06;;;;;;;3.37;1.00;;;17.90;99.90;;;;;;6666282;88;20221;-75
2021/07/13 22:46:06;;;;;;;3.85;0.90;;;17.90;99.90;;;;;;6684494;88;21039;-74
2021/07/13 22:56:07;;;;;;;3.40;1.20;;;17.80;99.90;;;;;;6681883;88;20322;-75
2021/07/13 23:06:07;;;;;;;3.78;1.30;;;17.70;99.90;;;;;;6682308;88;20191;-74
2021/07/13 23:16:09;;;;;;;3.78;1.20;;;17.50;99.90;;;;;;6692448;88;20217;-76
2021/07/13 23:26:09;;;;;;;4.30;1.27;;;17.60;99.90;;;;;;6679631;88;20307;-75
2021/07/13 23:36:10;;;;;;;5.35;1.17;;;17.60;99.90;;;;;;6679556;88;20240;-75
2021/07/13 23:46:12;;;;;;;9.80;1.30;;;17.60;99.90;;;;;;6678731;88;20672;-75
2021/07/13 23:56:13;;;;;;;6.43;1.60;;;17.60;99.90;;;;;;6678772;88;20217;-75
